Time;durP1;ratioP1;P1;durP2;ratioP2;P2;SDS_P1;SDS_P2;PMS_P1;PMS_P2;Temp;Humidity;BMP_temperature;BMP_pressure;BME280_temperature;BME280_humidity;BME280_pressure;Samples;Min_cycle;Max_cycle;Signal;HPM_P1;HPM_P2
2023/09/06 00:02:06;;;;;;;;;21.00;18.75;;;;;28.82;37.52;101164.25;5081514;27;45405;-72
2023/09/06 00:04:32;;;;;;;;;18.00;17.75;;;;;28.78;37.50;101163.63;5080357;28;45304;-71
2023/09/06 00:07:00;;;;;;;;;16.00;14.75;;;;;28.74;37.94;101164.88;5079849;28;45524;-71
2023/09/06 00:09:25;;;;;;;;;20.50;17.25;;;;;28.71;37.76;101159.72;5081186;28;45539;-71
2023/09/06 00:11:51;;;;;;;;;16.25;16.00;;;;;28.67;37.78;101164.53;5079627;28;45428;-71
2023/09/06 00:14:16;;;;;;;;;21.25;19.50;;;;;28.66;37.71;101161.94;5081893;27;45416;-71
2023/09/06 00:16:46;;;;;;;;;15.25;14.50;;;;;28.62;37.83;101169.44;5081193;27;45455;-71
2023/09/06 00:19:12;;;;;;;;;16.75;15.25;;;;;28.57;37.86;101160.03;5081060;27;45271;-71
2023/09/06 00:21:40;;;;;;;;;18.25;18.25;;;;;28.57;37.79;101160.03;5096710;27;45356;-72
2023/09/06 00:24:06;;;;;;;;;17.00;17.00;;;;;28.54;37.94;101161.09;5080330;28;45411;-72
2023/09/06 00:26:32;;;;;;;;;17.25;17.25;;;;;28.47;37.67;101155.38;5079064;28;45511;-71
2023/09/06 00:28:57;;;;;;;;;17.75;14.00;;;;;28.47;38.15;101152.66;5081333;27;45361;-71
2023/09/06 00:31:23;;;;;;;;;17.75;15.75;;;;;28.46;38.01;101156.34;5079477;28;45367;-70
2023/09/06 00:33:48;;;;;;;;;16.75;16.75;;;;;28.44;38.20;101157.47;5081300;28;45355;-72
2023/09/06 00:36:14;;;;;;;;;16.00;14.25;;;;;28.42;37.90;101157.59;5113582;27;56074;-72
2023/09/06 00:38:39;;;;;;;;;14.25;14.00;;;;;28.40;38.18;101158.72;5080704;27;52120;-71
2023/09/06 00:41:04;;;;;;;;;16.75;14.75;;;;;28.36;38.22;101159.00;5079167;28;45834;-71
2023/09/06 00:43:30;;;;;;;;;15.50;14.25;;;;;28.36;38.70;101155.41;5080920;27;45248;-71
2023/09/06 00:45:55;;;;;;;;;13.75;12.50;;;;;28.31;38.36;101149.53;5080704;27;45288;-71
2023/09/06 00:48:24;;;;;;;;;13.75;12.75;;;;;28.30;38.24;101150.53;5113805;27;45311;-71
2023/09/06 00:50:55;;;;;;;;;16.50;14.50;;;;;28.28;38.60;101158.75;5113557;27;46225;-71
2023/09/06 00:53:22;;;;;;;;;17.75;15.00;;;;;28.21;38.31;101153.03;5080798;27;45280;-70
2023/09/06 00:55:48;;;;;;;;;19.00;14.50;;;;;28.19;38.45;101152.28;5080415;27;45236;-70
2023/09/06 00:58:18;;;;;;;;;16.25;14.75;;;;;28.17;38.42;101156.09;5080299;28;45350;-71
2023/09/06 01:00:45;;;;;;;;;15.00;13.75;;;;;28.13;39.02;101154.63;5079117;28;45465;-71
2023/09/06 01:03:11;;;;;;;;;11.50;11.50;;;;;28.11;38.70;101154.72;5080846;27;45602;-71
2023/09/06 01:05:58;;;;;;;;;14.50;13.75;;;;;28.11;38.91;101156.59;5080298;27;45330;-71
2023/09/06 01:08:31;;;;;;;;;17.00;15.75;;;;;28.07;38.58;101158.69;5072692;27;45288;-70
2023/09/06 01:11:21;;;;;;;;;15.75;14.00;;;;;28.02;38.72;101150.91;5080347;28;45211;-71
2023/09/06 01:13:48;;;;;;;;;16.50;14.25;;;;;27.98;38.68;101149.47;5080387;28;45318;-71
2023/09/06 01:16:20;;;;;;;;;12.75;12.75;;;;;27.96;38.67;101142.47;5080371;28;45437;-71
2023/09/06 01:18:45;;;;;;;;;14.75;14.75;;;;;27.95;38.93;101146.16;5078731;28;47043;-71
2023/09/06 01:21:13;;;;;;;;;16.25;12.00;;;;;27.93;38.59;101150.84;5078907;28;45353;-71
2023/09/06 01:23:41;;;;;;;;;17.00;15.00;;;;;27.89;38.82;101142.13;5080309;27;45440;-70
2023/09/06 01:26:06;;;;;;;;;14.75;12.25;;;;;27.89;39.06;101150.22;5078464;28;45493;-70
2023/09/06 01:28:33;;;;;;;;;16.00;15.50;;;;;27.86;38.87;101140.53;5079934;27;46417;-71
2023/09/06 01:30:59;;;;;;;;;15.25;12.00;;;;;27.83;38.89;101140.75;5080192;27;45223;-71
2023/09/06 01:33:27;;;;;;;;;18.00;16.50;;;;;27.82;38.85;101147.13;5080118;27;45350;-71
2023/09/06 01:35:53;;;;;;;;;13.75;13.75;;;;;27.79;39.47;101144.72;5081707;28;45350;-70
2023/09/06 01:38:18;;;;;;;;;14.00;13.75;;;;;27.77;39.00;101151.22;5083661;28;45287;-71
2023/09/06 01:40:44;;;;;;;;;17.75;16.50;;;;;27.75;39.48;101151.34;5099417;27;45366;-71
2023/09/06 01:43:09;;;;;;;;;16.75;15.50;;;;;27.72;38.87;101156.97;5088874;27;45361;-71
2023/09/06 01:45:43;;;;;;;;;17.75;15.50;;;;;27.69;39.76;101158.09;5082426;28;45656;-71
2023/09/06 01:48:08;;;;;;;;;14.00;12.25;;;;;27.67;39.63;101157.38;5083716;27;46540;-71
2023/09/06 01:50:34;;;;;;;;;14.50;14.50;;;;;27.65;39.30;101144.97;5083394;28;45373;-71
2023/09/06 01:52:59;;;;;;;;;15.25;15.00;;;;;27.63;39.56;101155.03;5083742;27;45318;-70
2023/09/06 01:55:24;;;;;;;;;17.25;15.75;;;;;27.59;39.63;101150.88;5082109;28;45265;-70
2023/09/06 01:57:50;;;;;;;;;15.25;14.50;;;;;27.57;39.44;101159.06;5116000;27;48138;-70
2023/09/06 02:00:28;;;;;;;;;17.00;16.75;;;;;27.54;39.28;101164.72;5083487;27;45244;-71
2023/09/06 02:02:54;;;;;;;;;15.00;13.75;;;;;27.52;40.02;101161.28;5083665;27;45235;-70
2023/09/06 02:05:20;;;;;;;;;15.00;15.00;;;;;27.50;39.85;101157.84;5081713;28;45190;-70
2023/09/06 02:07:46;;;;;;;;;16.00;15.75;;;;;27.49;40.18;101165.06;5081931;28;45453;-71
2023/09/06 02:10:11;;;;;;;;;13.75;13.75;;;;;27.43;40.06;101156.63;5083060;27;45323;-70
2023/09/06 02:12:38;;;;;;;;;19.50;17.25;;;;;27.45;39.86;101163.59;5083323;27;45400;-72
2023/09/06 02:15:05;;;;;;;;;14.75;14.25;;;;;27.43;39.86;101165.56;5083013;27;45501;-70
2023/09/06 02:17:31;;;;;;;;;12.00;12.00;;;;;27.40;40.48;101160.41;5083092;27;45385;-70
2023/09/06 02:19:57;;;;;;;;;17.00;15.50;;;;;27.38;40.26;101163.22;5082999;27;45261;-71
2023/09/06 02:22:22;;;;;;;;;17.25;16.75;;;;;27.40;40.11;101163.97;5116183;27;45254;-70
2023/09/06 02:24:47;;;;;;;;;18.50;14.75;;;;;27.37;40.23;101160.59;5082777;27;45292;-70
2023/09/06 02:27:13;;;;;;;;;13.75;12.50;;;;;27.36;39.93;101165.16;5082641;27;45371;-70
2023/09/06 02:29:40;;;;;;;;;16.00;14.00;;;;;27.33;40.27;101162.72;5082802;27;45228;-70
2023/09/06 02:32:05;;;;;;;;;15.50;14.50;;;;;27.31;40.56;101153.00;5115912;27;45469;-70
2023/09/06 02:34:31;;;;;;;;;14.00;11.00;;;;;27.32;40.10;101152.03;5082790;28;45450;-70
2023/09/06 02:36:56;;;;;;;;;17.25;16.50;;;;;27.29;40.37;101157.69;5082698;27;46009;-70
2023/09/06 02:39:22;;;;;;;;;14.50;13.25;;;;;27.28;40.31;101154.09;5083371;27;45374;-71
2023/09/06 02:41:47;;;;;;;;;12.75;12.25;;;;;27.24;40.02;101153.50;5082635;27;45311;-71
2023/09/06 02:44:12;;;;;;;;;16.00;13.25;;;;;27.22;40.27;101150.06;5082751;27;45319;-72
2023/09/06 02:46:38;;;;;;;;;13.00;12.50;;;;;27.22;40.36;101154.59;5081688;27;45872;-72
2023/09/06 02:49:11;;;;;;;;;15.50;13.75;;;;;27.22;40.53;101159.97;5082670;27;45359;-71
2023/09/06 02:51:43;;;;;;;;;15.00;12.50;;;;;27.15;40.33;101143.44;5082853;27;45477;-71
2023/09/06 02:54:09;;;;;;;;;13.25;13.25;;;;;27.20;40.54;101160.09;5081040;28;46237;-71
2023/09/06 02:56:37;;;;;;;;;11.50;11.00;;;;;27.17;40.71;101152.28;5082011;27;46099;-72
2023/09/06 02:59:03;;;;;;;;;16.00;14.75;;;;;27.14;40.73;101151.66;5082282;28;45304;-71
2023/09/06 03:01:30;;;;;;;;;14.50;12.50;;;;;27.15;40.65;101156.06;5081252;28;45259;-71
2023/09/06 03:03:56;;;;;;;;;13.75;13.50;;;;;27.15;40.73;101154.22;5082267;27;45266;-71
2023/09/06 03:06:32;;;;;;;;;16.25;12.00;;;;;27.12;40.24;101165.25;5082377;28;45270;-72
2023/09/06 03:08:59;;;;;;;;;16.75;14.50;;;;;27.12;40.46;101164.38;5082319;27;45350;-71
2023/09/06 03:11:24;;;;;;;;;14.75;14.50;;;;;27.07;40.51;101157.50;5082096;28;45292;-71
2023/09/06 03:13:55;;;;;;;;;14.50;13.00;;;;;27.07;40.23;101153.97;5082125;27;45284;-72
2023/09/06 03:16:22;;;;;;;;;13.50;12.50;;;;;27.04;40.44;101156.88;5082278;28;45232;-71
2023/09/06 03:18:49;;;;;;;;;14.00;12.00;;;;;27.03;40.49;101164.13;5097736;27;45317;-71
2023/09/06 03:21:16;;;;;;;;;14.00;12.75;;;;;26.99;40.53;101159.09;5082340;27;45516;-71
2023/09/06 03:23:44;;;;;;;;;13.25;12.25;;;;;26.97;40.68;101159.22;5082083;27;45351;-71
2023/09/06 03:26:10;;;;;;;;;14.00;14.00;;;;;26.95;41.18;101158.47;5081322;27;45350;-71
2023/09/06 03:28:40;;;;;;;;;19.75;17.00;;;;;26.88;40.97;101143.72;5082152;27;45308;-71
2023/09/06 03:31:08;;;;;;;;;13.75;11.75;;;;;26.89;40.80;101149.03;5080561;28;45359;-71
2023/09/06 03:33:35;;;;;;;;;13.50;13.00;;;;;26.86;41.23;101153.78;5081956;28;45277;-71
2023/09/06 03:36:07;;;;;;;;;13.25;10.00;;;;;26.85;40.45;101150.22;5081601;28;46148;-71
2023/09/06 03:38:36;;;;;;;;;16.00;14.25;;;;;26.82;40.90;101158.56;5081942;27;45295;-70
2023/09/06 03:41:02;;;;;;;;;13.75;11.50;;;;;26.81;40.77;101153.28;5081579;27;45163;-71
2023/09/06 03:43:32;;;;;;;;;15.00;14.75;;;;;26.79;41.23;101157.91;5081682;28;45434;-71
2023/09/06 03:45:58;;;;;;;;;15.00;15.00;;;;;26.73;40.88;101152.03;5081549;27;45630;-71
2023/09/06 03:48:27;;;;;;;;;19.25;19.25;;;;;26.74;41.30;101164.53;5081692;28;45406;-71
2023/09/06 03:50:57;;;;;;;;;21.00;19.00;;;;;26.72;41.41;101162.91;5081606;27;45351;-71
2023/09/06 03:53:25;;;;;;;;;21.50;18.25;;;;;26.70;41.61;101175.63;5081532;28;45280;-71
2023/09/06 03:55:51;;;;;;;;;15.00;13.00;;;;;26.67;41.54;101165.94;5081165;28;45397;-71
2023/09/06 03:58:17;;;;;;;;;16.25;16.00;;;;;26.64;41.44;101163.50;5081274;28;45306;-71
2023/09/06 04:00:43;;;;;;;;;17.00;15.75;;;;;26.65;41.77;101167.88;5081467;27;45275;-71
2023/09/06 04:03:09;;;;;;;;;17.50;15.25;;;;;26.62;41.77;101165.44;5081458;27;45662;-71
2023/09/06 04:05:34;;;;;;;;;16.50;14.00;;;;;26.63;41.96;101174.34;5081100;27;45233;-71
2023/09/06 04:08:03;;;;;;;;;16.50;14.75;;;;;26.59;41.82;101169.22;5081619;27;45397;-70
2023/09/06 04:10:38;;;;;;;;;14.75;12.00;;;;;26.58;41.23;101167.50;5081368;27;45331;-70
2023/09/06 04:13:08;;;;;;;;;17.50;17.25;;;;;26.56;41.52;101164.03;5081075;27;45718;-71
2023/09/06 04:15:37;;;;;;;;;17.75;15.00;;;;;26.55;41.46;101162.34;5081017;27;45224;-71
2023/09/06 04:18:04;;;;;;;;;15.25;14.00;;;;;26.56;41.40;101174.81;5081080;27;45394;-72
2023/09/06 04:20:36;;;;;;;;;17.25;16.50;;;;;26.55;42.18;101172.25;5079922;28;45336;-71
2023/09/06 04:23:06;;;;;;;;;14.50;14.50;;;;;26.51;41.93;101160.84;5081130;27;45311;-72
2023/09/06 04:25:41;;;;;;;;;18.25;14.00;;;;;26.51;41.59;101165.38;5080805;27;45248;-71
2023/09/06 04:28:07;;;;;;;;;16.25;14.00;;;;;26.50;41.77;101163.66;5080876;27;45571;-71
2023/09/06 04:30:35;;;;;;;;;17.75;15.75;;;;;26.50;41.83;101166.34;5081256;27;45314;-71
2023/09/06 04:33:01;;;;;;;;;17.25;14.75;;;;;26.49;41.74;101162.81;5080848;27;45591;-71
2023/09/06 04:35:33;;;;;;;;;13.25;12.25;;;;;26.48;41.61;101170.97;5080796;27;46715;-71
2023/09/06 04:38:00;;;;;;;;;14.25;14.25;;;;;26.44;42.02;101173.06;5080653;27;45246;-71
2023/09/06 04:40:27;;;;;;;;;14.00;13.50;;;;;26.44;42.16;101178.47;5081009;28;45392;-71
2023/09/06 04:42:52;;;;;;;;;14.75;11.50;;;;;26.42;42.04;101175.00;5080299;27;45609;-71
2023/09/06 04:45:18;;;;;;;;;14.00;13.50;;;;;26.39;42.21;101173.41;5096244;27;53004;-71
2023/09/06 04:47:43;;;;;;;;;13.75;12.75;;;;;26.40;41.98;101182.34;5080684;27;45323;-71
2023/09/06 04:50:11;;;;;;;;;12.25;11.75;;;;;26.38;42.08;101178.91;5080977;27;45442;-70
2023/09/06 04:52:43;;;;;;;;;13.25;12.75;;;;;26.38;42.56;101181.59;5079358;28;45650;-70
2023/09/06 04:55:12;;;;;;;;;11.25;11.25;;;;;26.36;42.23;101184.38;5078928;28;48172;-71
2023/09/06 04:57:38;;;;;;;;;15.00;14.00;;;;;26.32;42.75;101171.28;5113328;27;45691;-70
2023/09/06 05:00:11;;;;;;;;;15.00;13.25;;;;;26.32;42.12;101176.69;5080667;27;45347;-71
2023/09/06 05:02:37;;;;;;;;;16.25;13.25;;;;;26.30;42.52;101176.75;5080439;27;45639;-71
2023/09/06 05:05:03;;;;;;;;;16.00;13.25;;;;;26.28;42.72;101176.88;5080335;27;45392;-71
2023/09/06 05:07:30;;;;;;;;;16.75;14.50;;;;;26.26;42.02;101169.88;5079255;28;45247;-71
2023/09/06 05:09:57;;;;;;;;;13.00;12.00;;;;;26.24;42.70;101170.00;5079904;27;45253;-70
2023/09/06 05:12:22;;;;;;;;;14.00;13.25;;;;;26.20;42.58;101171.22;5080345;27;45324;-71
2023/09/06 05:14:48;;;;;;;;;16.00;14.25;;;;;26.19;42.83;101169.50;5080291;28;45445;-71
2023/09/06 05:17:13;;;;;;;;;14.50;14.00;;;;;26.18;42.82;101172.31;5080499;27;45244;-70
2023/09/06 05:19:38;;;;;;;;;15.50;12.25;;;;;26.16;42.92;101172.41;5080179;27;45832;-71
2023/09/06 05:22:04;;;;;;;;;13.25;11.50;;;;;26.14;42.29;101168.97;5080379;27;45386;-70
2023/09/06 05:24:29;;;;;;;;;13.25;11.50;;;;;26.12;42.50;101170.91;5080301;27;46143;-72
2023/09/06 05:26:54;;;;;;;;;15.75;15.25;;;;;26.10;43.02;101170.16;5078506;28;45513;-73
2023/09/06 05:29:20;;;;;;;;;13.25;13.25;;;;;26.12;42.99;101170.91;5068646;27;45840;-70
2023/09/06 05:31:46;;;;;;;;;15.75;13.50;;;;;26.09;42.50;101169.31;5079789;28;45161;-68
2023/09/06 05:34:11;;;;;;;;;14.25;14.25;;;;;26.11;42.51;101179.97;5070891;28;46272;-68
2023/09/06 05:36:36;;;;;;;;;17.25;15.25;;;;;26.09;42.50;101176.53;5079751;27;45231;-71
2023/09/06 05:39:06;;;;;;;;;14.00;12.00;;;;;26.07;42.92;101170.38;5079139;27;47971;-72
2023/09/06 05:41:31;;;;;;;;;17.00;15.25;;;;;26.09;42.79;101181.91;5079598;27;46016;-72
2023/09/06 05:43:57;;;;;;;;;14.25;14.25;;;;;26.09;42.88;101179.22;5095075;27;46832;-72
2023/09/06 05:46:22;;;;;;;;;15.75;15.75;;;;;26.09;42.87;101185.47;5070542;27;45330;-71
2023/09/06 05:48:48;;;;;;;;;14.75;12.75;;;;;26.10;42.57;101187.19;5079902;27;45506;-68
2023/09/06 05:51:13;;;;;;;;;17.50;14.00;;;;;26.10;42.97;101189.88;5079532;28;45470;-73
2023/09/06 05:53:38;;;;;;;;;16.75;15.25;;;;;26.10;43.00;101186.31;5079722;27;45394;-75
2023/09/06 05:56:04;;;;;;;;;10.00;8.50;;;;;26.10;43.32;101194.38;5079106;27;50666;-74
2023/09/06 05:58:32;;;;;;;;;10.25;10.25;;;;;26.08;43.59;101185.59;5078241;28;45338;-74
2023/09/06 06:00:57;;;;;;;;;14.50;14.50;;;;;26.10;42.79;101192.56;5079186;27;45387;-72
2023/09/06 06:03:23;;;;;;;;;13.25;12.50;;;;;26.10;43.23;101195.25;5073124;27;45494;-75
2023/09/06 06:05:49;;;;;;;;;16.25;13.25;;;;;26.11;42.92;101185.34;5079399;27;45387;-75
2023/09/06 06:08:14;;;;;;;;;11.50;11.25;;;;;26.13;43.10;101196.03;5078212;28;45275;-75
2023/09/06 06:10:40;;;;;;;;;15.00;12.75;;;;;26.11;43.44;101186.22;5078036;28;45649;-69
2023/09/06 06:13:07;;;;;;;;;13.75;12.00;;;;;26.15;43.22;101202.13;5111627;27;46557;-68
2023/09/06 06:15:32;;;;;;;;;13.75;13.50;;;;;26.13;43.01;101196.03;5077766;27;45366;-70
2023/09/06 06:17:57;;;;;;;;;17.00;13.75;;;;;26.16;43.57;101202.03;5085432;27;45424;-69
2023/09/06 06:20:23;;;;;;;;;14.00;14.00;;;;;26.15;42.88;101200.31;5098399;27;45491;-70
2023/09/06 06:22:48;;;;;;;;;11.75;11.75;;;;;26.15;42.96;101202.13;5081910;27;45398;-72
2023/09/06 06:25:13;;;;;;;;;14.25;14.25;;;;;26.18;42.82;101200.09;5101581;27;53722;-70
2023/09/06 06:27:39;;;;;;;;;12.25;12.25;;;;;26.18;43.04;101208.16;5082590;27;45384;-68
2023/09/06 06:30:08;;;;;;;;;17.75;17.00;;;;;26.18;43.14;101208.16;5081040;27;45312;-67
2023/09/06 06:32:34;;;;;;;;;15.75;13.50;;;;;26.19;43.64;101200.94;5085962;27;45320;-67
2023/09/06 06:35:05;;;;;;;;;12.75;12.75;;;;;26.17;43.23;101202.91;5086758;27;45420;-67
2023/09/06 06:37:30;;;;;;;;;14.25;13.25;;;;;26.17;43.44;101209.13;5079654;28;45409;-68
2023/09/06 06:39:58;;;;;;;;;11.25;11.00;;;;;26.20;43.00;101216.13;5082344;27;45509;-67
2023/09/06 06:42:24;;;;;;;;;12.00;10.25;;;;;26.14;42.81;101211.19;5080633;28;47718;-67
2023/09/06 06:44:51;;;;;;;;;15.00;13.25;;;;;26.18;43.48;101224.31;5081872;27;45304;-67
2023/09/06 06:47:16;;;;;;;;;12.25;12.00;;;;;26.20;43.41;101230.47;5082484;28;45407;-70
2023/09/06 06:49:41;;;;;;;;;11.00;10.25;;;;;26.21;43.51;101225.94;5082618;27;45469;-68
2023/09/06 06:52:07;;;;;;;;;11.00;10.50;;;;;26.24;43.09;101228.41;5082265;27;46048;-69
2023/09/06 06:54:32;;;;;;;;;9.00;8.25;;;;;26.22;43.00;101227.66;5082189;27;45303;-69
2023/09/06 06:56:57;;;;;;;;;11.50;11.50;;;;;26.25;43.42;101233.69;5082114;27;46071;-69
2023/09/06 06:59:23;;;;;;;;;11.25;11.00;;;;;26.24;42.97;101223.88;5081958;27;45747;-68
2023/09/06 07:01:48;;;;;;;;;11.50;9.25;;;;;26.25;43.62;101233.69;5082028;28;46106;-70
2023/09/06 07:04:14;;;;;;;;;10.25;10.25;;;;;26.28;43.55;101238.84;5081224;28;45460;-71
2023/09/06 07:06:39;;;;;;;;;14.00;11.25;;;;;26.27;43.01;101234.41;5080392;27;45384;-71
2023/09/06 07:09:05;;;;;;;;;10.50;10.50;;;;;26.32;43.43;101227.84;5080528;28;45669;-71
2023/09/06 07:11:31;;;;;;;;;10.00;10.00;;;;;26.31;43.53;101232.34;5081802;27;45937;-70
2023/09/06 07:13:56;;;;;;;;;9.75;8.75;;;;;26.33;43.54;101229.56;5081652;27;45767;-72
2023/09/06 07:16:22;;;;;;;;;12.00;8.25;;;;;26.32;43.50;101227.84;5080585;28;45429;-69
2023/09/06 07:18:48;;;;;;;;;11.25;9.75;;;;;26.35;43.44;101233.00;5081190;27;45229;-67
2023/09/06 07:21:16;;;;;;;;;7.50;7.50;;;;;26.39;42.59;101237.19;5081696;28;45267;-71
2023/09/06 07:23:42;;;;;;;;;8.50;8.00;;;;;26.38;43.36;101228.25;5083629;27;45394;-69
2023/09/06 07:26:08;;;;;;;;;8.00;7.00;;;;;26.42;43.27;101232.44;5077350;27;45451;-71
2023/09/06 07:28:39;;;;;;;;;8.00;8.00;;;;;26.39;42.99;101226.41;5054758;28;45748;-73
2023/09/06 07:31:06;;;;;;;;;8.00;8.00;;;;;26.46;43.33;101232.22;5066601;28;46099;-68
2023/09/06 07:33:31;;;;;;;;;7.75;7.75;;;;;26.47;42.90;101234.78;5079346;28;45325;-65
2023/09/06 07:35:57;;;;;;;;;11.25;9.00;;;;;26.49;42.67;101242.75;5056746;28;45390;-64
2023/09/06 07:38:22;;;;;;;;;7.00;7.00;;;;;26.51;42.79;101241.66;5054113;28;45315;-65
2023/09/06 07:40:55;;;;;;;;;7.75;7.75;;;;;26.52;43.09;101239.84;5048627;28;46738;-65
2023/09/06 07:43:20;;;;;;;;;8.00;7.75;;;;;26.53;43.08;101242.44;5078691;28;45459;-65
2023/09/06 07:45:46;;;;;;;;;6.50;6.50;;;;;26.60;42.47;101240.13;5080402;28;45325;-65
2023/09/06 07:48:11;;;;;;;;;8.50;8.50;;;;;26.61;43.31;101242.69;5078789;28;45518;-65
2023/09/06 07:50:37;;;;;;;;;8.75;6.00;;;;;26.63;42.52;101244.44;5079888;28;45871;-65
2023/09/06 07:53:02;;;;;;;;;10.50;10.50;;;;;26.67;43.17;101252.19;5078442;28;45539;-65
2023/09/06 07:55:28;;;;;;;;;8.75;6.50;;;;;26.69;42.73;101249.34;5079153;27;45375;-65
2023/09/06 07:57:53;;;;;;;;;9.75;8.00;;;;;26.72;43.14;101254.53;5076945;28;45425;-66
2023/09/06 08:00:19;;;;;;;;;9.00;7.00;;;;;26.72;42.28;101258.06;5079718;28;45375;-66
2023/09/06 08:02:44;;;;;;;;;6.50;6.00;;;;;26.76;42.88;101256.91;5078549;28;45268;-66
2023/09/06 08:05:10;;;;;;;;;10.00;10.00;;;;;26.77;42.28;101255.09;5068383;27;45319;-66
2023/09/06 08:07:36;;;;;;;;;7.50;5.75;;;;;26.79;42.65;101254.97;5078643;28;45386;-66
2023/09/06 08:10:02;;;;;;;;;8.25;8.25;;;;;26.83;42.44;101257.31;5079856;28;47201;-68
2023/09/06 08:12:27;;;;;;;;;8.25;7.50;;;;;26.86;42.45;101257.06;5059984;28;45444;-67
2023/09/06 08:14:52;;;;;;;;;7.75;6.75;;;;;26.86;42.65;101245.44;5079309;28;48712;-68
2023/09/06 08:17:18;;;;;;;;;8.25;8.00;;;;;26.88;42.23;101254.25;5078564;28;45359;-67
2023/09/06 08:19:43;;;;;;;;;6.75;6.75;;;;;26.95;43.17;101265.47;5079655;28;46221;-68
2023/09/06 08:22:08;;;;;;;;;7.25;7.25;;;;;26.98;42.96;101266.09;5078184;28;45232;-67
2023/09/06 08:24:34;;;;;;;;;6.50;6.25;;;;;27.01;42.20;101271.25;5061436;28;45329;-64
2023/09/06 08:27:00;;;;;;;;;7.25;7.25;;;;;27.05;42.45;101274.56;5059586;28;45383;-66
2023/09/06 08:29:25;;;;;;;;;7.25;6.50;;;;;27.09;42.30;101266.13;5059163;28;45376;-67
2023/09/06 08:31:50;;;;;;;;;7.50;7.00;;;;;27.15;42.63;101264.78;5072052;28;45308;-72
2023/09/06 08:34:16;;;;;;;;;9.50;7.50;;;;;27.18;42.55;101267.28;5076943;28;45486;-71
2023/09/06 08:36:41;;;;;;;;;8.75;8.25;;;;;27.25;42.34;101265.81;5066307;27;45374;-70
2023/09/06 08:39:07;;;;;;;;;8.50;6.00;;;;;27.32;42.39;101274.31;5058635;28;47886;-68
2023/09/06 08:41:33;;;;;;;;;9.00;8.50;;;;;27.38;42.27;101272.97;5058923;28;45883;-68
2023/09/06 08:44:03;;;;;;;;;9.50;7.50;;;;;27.43;42.77;101268.09;5058648;28;45371;-68
2023/09/06 08:46:33;;;;;;;;;8.00;8.00;;;;;27.49;42.54;101269.47;5056283;28;46855;-68
2023/09/06 08:49:00;;;;;;;;;7.75;7.75;;;;;27.55;42.48;101269.84;5060751;28;47242;-65
2023/09/06 08:51:35;;;;;;;;;8.00;7.75;;;;;27.59;42.53;101264.22;5060179;28;45389;-65
2023/09/06 08:54:04;;;;;;;;;11.25;9.25;;;;;27.67;42.29;101270.72;5061460;28;45415;-64
2023/09/06 08:56:32;;;;;;;;;9.25;9.25;;;;;27.73;42.36;101274.78;5039648;28;45614;-63
2023/09/06 08:58:58;;;;;;;;;8.75;8.75;;;;;27.78;42.39;101264.47;5060491;28;45445;-65
2023/09/06 09:01:24;;;;;;;;;10.00;9.00;;;;;27.85;42.36;101267.56;5061182;28;45408;-64
2023/09/06 09:03:49;;;;;;;;;11.00;9.25;;;;;27.95;42.05;101275.75;5060204;28;45486;-63
2023/09/06 09:06:14;;;;;;;;;11.75;8.75;;;;;28.02;42.28;101277.00;5059543;28;45274;-64
2023/09/06 09:08:40;;;;;;;;;11.50;9.75;;;;;28.07;42.10;101269.41;5060247;28;45398;-63
2023/09/06 09:11:12;;;;;;;;;5.25;5.25;;;;;28.18;42.15;101276.66;5059600;28;45393;-63
2023/09/06 09:13:38;;;;;;;;;10.25;9.75;;;;;28.24;41.94;101269.91;5060752;28;45415;-63
2023/09/06 09:16:12;;;;;;;;;10.50;8.25;;;;;28.34;42.17;101271.75;5061176;28;45505;-64
2023/09/06 09:18:38;;;;;;;;;14.50;11.50;;;;;28.42;42.36;101268.41;5059405;28;46181;-63
2023/09/06 09:21:04;;;;;;;;;10.75;9.25;;;;;28.50;42.29;101268.66;5061228;28;45408;-63
2023/09/06 09:23:42;;;;;;;;;9.00;6.50;;;;;28.59;42.33;101269.72;5069703;28;45344;-64
2023/09/06 09:26:08;;;;;;;;;11.00;10.75;;;;;28.69;42.09;101265.31;5077126;28;46702;-63
2023/09/06 09:28:34;;;;;;;;;7.75;7.25;;;;;28.79;42.14;101264.53;5046485;28;47732;-63
2023/09/06 09:31:01;;;;;;;;;11.00;11.00;;;;;28.89;42.01;101265.47;5047476;28;45291;-65
2023/09/06 09:33:28;;;;;;;;;9.75;9.75;;;;;29.00;42.09;101260.00;5078705;28;45337;-65
2023/09/06 09:35:53;;;;;;;;;8.00;8.00;;;;;29.11;41.93;101259.13;5058369;28;45433;-64
2023/09/06 09:38:18;;;;;;;;;7.75;7.25;;;;;29.25;42.18;101255.22;5063419;28;45760;-64
2023/09/06 09:40:44;;;;;;;;;9.00;8.00;;;;;29.37;42.11;101258.78;5068981;28;45608;-65
2023/09/06 09:43:09;;;;;;;;;7.50;7.50;;;;;29.56;42.25;101258.03;5078112;28;45415;-65
2023/09/06 09:45:43;;;;;;;;;10.75;9.25;;;;;29.75;42.23;101262.69;5077362;28;45437;-65
2023/09/06 09:48:09;;;;;;;;;9.00;8.00;;;;;29.95;42.47;101262.78;5058622;28;45919;-63
2023/09/06 09:50:35;;;;;;;;;10.75;9.00;;;;;30.17;42.38;101256.31;5059554;28;45532;-63
2023/09/06 09:53:03;;;;;;;;;10.50;8.00;;;;;30.40;41.90;101262.41;5076379;28;45220;-64
2023/09/06 09:55:32;;;;;;;;;9.00;9.00;;;;;30.65;42.19;101260.16;5079356;28;45348;-63
2023/09/06 09:58:05;;;;;;;;;10.50;9.75;;;;;30.90;42.06;101261.47;5080004;28;45485;-62
2023/09/06 10:00:32;;;;;;;;;7.50;7.50;;;;;31.15;41.63;101261.09;5082094;28;45648;-62
2023/09/06 10:02:58;;;;;;;;;6.50;5.25;;;;;31.37;41.76;101255.34;5060186;28;45362;-62
2023/09/06 10:05:29;;;;;;;;;10.25;7.75;;;;;31.57;41.24;101256.16;5071994;27;45371;-62
2023/09/06 10:07:56;;;;;;;;;8.25;8.00;;;;;31.79;41.48;101253.22;5080364;28;45324;-62
2023/09/06 10:10:26;;;;;;;;;12.00;9.75;;;;;31.97;40.75;101246.00;5073324;28;45393;-62
2023/09/06 10:12:53;;;;;;;;;7.25;7.25;;;;;32.14;41.12;101246.22;5078849;28;45305;-62
2023/09/06 10:15:24;;;;;;;;;8.00;7.50;;;;;32.33;40.79;101250.72;5081669;27;45332;-62
2023/09/06 10:17:52;;;;;;;;;9.75;8.00;;;;;32.47;40.53;101252.91;5080119;28;45480;-64
2023/09/06 10:20:22;;;;;;;;;8.00;8.00;;;;;32.65;40.35;101258.38;5063149;28;45290;-64
2023/09/06 10:22:51;;;;;;;;;7.00;7.00;;;;;32.83;40.55;101261.13;5080626;28;45414;-64
2023/09/06 10:25:18;;;;;;;;;9.50;7.75;;;;;33.01;40.21;101254.84;5079828;27;45256;-63
2023/09/06 10:27:56;;;;;;;;;9.75;9.00;;;;;33.24;40.19;101252.44;5059609;28;48232;-62
2023/09/06 10:30:44;;;;;;;;;8.00;7.50;;;;;33.46;39.95;101247.53;5052044;28;45455;-61
2023/09/06 10:33:11;;;;;;;;;7.50;7.25;;;;;33.68;39.87;101241.53;5062583;28;45408;-62
2023/09/06 10:35:42;;;;;;;;;7.25;6.75;;;;;33.90;39.39;101228.41;5044213;28;45654;-62
2023/09/06 10:38:18;;;;;;;;;7.50;7.00;;;;;34.16;39.48;101236.50;5041807;28;48503;-63
2023/09/06 10:40:49;;;;;;;;;12.25;8.50;;;;;34.42;39.21;101235.56;5048766;28;45326;-63
2023/09/06 10:44:07;;;;;;;;;8.00;8.00;;;;;34.71;38.91;101236.97;5062312;28;45395;-62
2023/09/06 10:46:36;;;;;;;;;7.75;6.00;;;;;34.98;38.79;101227.66;5057150;28;45375;-64
2023/09/06 10:49:34;;;;;;;;;7.00;7.00;;;;;35.30;38.40;101225.91;5062345;28;45278;-65
2023/09/06 10:52:00;;;;;;;;;11.50;8.50;;;;;35.57;38.90;101232.03;5004246;28;45201;-63
2023/09/06 10:54:40;;;;;;;;;6.50;6.50;;;;;35.82;38.54;101228.34;5061509;28;45289;-63
2023/09/06 10:57:10;;;;;;;;;9.25;8.00;;;;;36.08;38.48;101223.47;5034095;28;45485;-62
2023/09/06 10:59:55;;;;;;;;;7.25;7.00;;;;;36.35;38.04;101215.78;5038588;28;48458;-62
2023/09/06 11:02:27;;;;;;;;;10.25;7.50;;;;;36.64;37.63;101227.09;5057431;28;45565;-60
2023/09/06 11:05:09;;;;;;;;;8.00;6.75;;;;;36.92;37.38;101225.53;5058783;28;45388;-65
2023/09/06 11:07:45;;;;;;;;;6.75;6.25;;;;;37.21;37.43;101223.88;5047213;28;45509;-64
2023/09/06 11:10:11;;;;;;;;;7.75;7.25;;;;;37.49;36.99;101223.28;5049060;28;47177;-62
2023/09/06 11:12:38;;;;;;;;;4.75;4.75;;;;;37.77;36.71;101228.09;5054512;28;45340;-61
2023/09/06 11:15:05;;;;;;;;;8.25;7.00;;;;;38.08;36.83;101226.19;5057886;28;45398;-65
2023/09/06 11:17:31;;;;;;;;;8.00;8.00;;;;;38.39;36.66;101223.19;5054556;28;45437;-61